createdAt,value
2019-04-27T03:01:04.152Z,90.20
2019-04-27T03:03:32.535Z,90.00
2019-04-27T03:06:00.892Z,89.40
2019-04-27T03:08:29.501Z,89.60
2019-04-27T03:10:57.842Z,90.30
2019-04-27T03:13:30.572Z,89.80
2019-04-27T03:16:15.172Z,90.10
2019-04-27T03:18:45.134Z,90.10
2019-04-27T03:21:15.119Z,90.40
2019-04-27T03:23:43.508Z,90.10
2019-04-27T03:26:22.258Z,90.30
2019-04-27T03:28:50.648Z,89.30
2019-04-27T03:31:21.602Z,89.40
2019-04-27T03:33:52.804Z,87.90
2019-04-27T03:36:21.515Z,88.70
2019-04-27T03:38:49.831Z,89.80
2019-04-27T03:41:19.303Z,87.60
2019-04-27T03:43:49.925Z,88.10
2019-04-27T03:46:20.181Z,88.60
2019-04-27T03:48:49.744Z,87.30
2019-04-27T03:51:22.216Z,87.30
2019-04-27T03:53:52.259Z,90.00
2019-04-27T03:56:30.418Z,89.00
2019-04-27T03:59:00.015Z,86.40
2019-04-27T04:01:30.223Z,88.80
2019-04-27T04:03:59.880Z,87.70
2019-04-27T04:06:29.511Z,86.00
2019-04-27T04:09:00.248Z,86.70
2019-04-27T04:11:32.696Z,85.80
2019-04-27T04:14:02.740Z,87.70
2019-04-27T04:16:32.757Z,87.70
2019-04-27T04:19:02.793Z,88.20
2019-04-27T04:21:31.156Z,87.70
2019-04-27T04:24:00.935Z,87.50
2019-04-27T04:26:32.676Z,88.00
2019-04-27T04:29:00.040Z,86.90
2019-04-27T04:31:32.644Z,87.20
2019-04-27T04:33:59.762Z,89.30
2019-04-27T04:36:30.145Z,88.50
2019-04-27T04:39:00.517Z,87.50
2019-04-27T04:41:32.895Z,87.50
2019-04-27T04:44:20.247Z,87.00
2019-04-27T04:46:50.424Z,85.60
2019-04-27T04:49:19.415Z,85.00
2019-04-27T04:51:50.174Z,87.60
2019-04-27T04:54:19.809Z,84.60
2019-04-27T04:56:49.378Z,87.90
2019-04-27T04:59:19.946Z,87.50
2019-04-27T05:01:49.846Z,85.70
2019-04-27T05:04:19.290Z,88.40
2019-04-27T05:06:49.238Z,83.10
2019-04-27T05:09:19.380Z,85.00
2019-04-27T05:11:48.658Z,87.00
2019-04-27T05:14:17.174Z,87.90
2019-04-27T05:16:45.554Z,85.20
2019-04-27T05:19:13.940Z,85.30
2019-04-27T05:21:42.645Z,83.40
2019-04-27T05:24:11.022Z,82.80
2019-04-27T05:26:39.832Z,83.90
2019-04-27T05:29:09.116Z,79.50
2019-04-27T05:31:38.792Z,82.10
2019-04-27T05:34:07.302Z,84.40
2019-04-27T05:36:35.684Z,84.70
2019-04-27T05:39:06.108Z,86.40
2019-04-27T05:41:37.650Z,86.40
2019-04-27T05:44:07.736Z,84.50
2019-04-27T05:46:39.503Z,84.40
2019-04-27T05:49:09.655Z,86.40
2019-04-27T05:51:40.125Z,85.70
2019-04-27T05:54:09.070Z,85.80
2019-04-27T05:56:39.020Z,82.50
2019-04-27T05:59:09.115Z,85.20
2019-04-27T06:01:38.964Z,85.10
2019-04-27T06:04:09.021Z,82.60
2019-04-27T06:06:37.490Z,85.20
2019-04-27T06:09:06.720Z,83.30
2019-04-27T06:11:35.080Z,82.60
2019-04-27T06:14:03.467Z,85.70
2019-04-27T06:16:31.853Z,85.20
2019-04-27T06:19:00.237Z,85.60
2019-04-27T06:21:29.494Z,85.20
2019-04-27T06:23:58.867Z,84.00
2019-04-27T06:26:27.358Z,86.90
2019-04-27T06:28:56.034Z,83.80
2019-04-27T06:31:24.483Z,88.80
2019-04-27T06:33:52.868Z,84.80
2019-04-27T06:36:21.245Z,82.60
2019-04-27T06:38:49.627Z,87.90
2019-04-27T06:41:18.949Z,87.90
2019-04-27T06:43:47.384Z,86.10
2019-04-27T06:46:15.738Z,84.00
2019-04-27T06:48:44.118Z,83.60
2019-04-27T06:51:12.481Z,83.50
2019-04-27T06:53:40.874Z,82.20
2019-04-27T06:56:09.251Z,84.50
2019-04-27T06:58:40.536Z,83.90
2019-04-27T07:01:09.490Z,81.50
2019-04-27T07:03:39.410Z,84.10
2019-04-27T07:06:08.893Z,80.20
2019-04-27T07:08:37.288Z,84.20
2019-04-27T07:11:05.754Z,82.80
2019-04-27T07:13:34.082Z,84.90
2019-04-27T07:16:02.470Z,81.70
2019-04-27T07:18:30.830Z,82.00
2019-04-27T07:20:59.238Z,83.40
2019-04-27T07:23:29.243Z,80.60
2019-04-27T07:25:57.693Z,79.10
2019-04-27T07:28:26.053Z,75.20
2019-04-27T07:30:54.435Z,81.70
2019-04-27T07:33:22.800Z,78.10
2019-04-27T07:35:51.188Z,75.90
2019-04-27T07:38:19.539Z,81.30
2019-04-27T07:40:48.855Z,79.20
2019-04-27T07:43:29.287Z,77.80
2019-04-27T07:45:59.053Z,79.60
2019-04-27T07:48:28.526Z,80.50
2019-04-27T07:50:57.047Z,81.80
2019-04-27T07:53:25.401Z,81.50
2019-04-27T07:55:53.758Z,79.50
2019-04-27T07:58:22.392Z,78.90
2019-04-27T08:00:51.098Z,80.10
2019-04-27T08:03:19.662Z,81.00
2019-04-27T08:05:49.122Z,80.70
2019-04-27T08:08:18.997Z,79.40
2019-04-27T08:10:48.419Z,81.30
2019-04-27T08:13:17.465Z,77.80
2019-04-27T08:15:45.822Z,77.70
2019-04-27T08:18:14.222Z,82.90
2019-04-27T08:20:42.593Z,77.90
2019-04-27T08:23:10.976Z,75.70
2019-04-27T08:25:39.391Z,77.20
2019-04-27T08:28:18.809Z,77.70
2019-04-27T08:30:48.982Z,81.30
2019-04-27T08:33:18.957Z,78.60
2019-04-27T08:35:48.938Z,78.70
2019-04-27T08:38:19.022Z,79.70
2019-04-27T08:40:49.309Z,78.50
2019-04-27T08:43:18.997Z,82.00
2019-04-27T08:45:48.823Z,80.40
2019-04-27T08:48:25.150Z,81.40
2019-04-27T08:50:48.657Z,78.60
2019-04-27T09:02:09.753Z,77.90
2019-04-27T09:04:39.415Z,79.40
2019-04-27T09:07:25.556Z,82.10
2019-04-27T09:09:59.644Z,76.70
2019-04-27T09:12:29.646Z,80.70
2019-04-27T09:14:59.668Z,79.20
2019-04-27T09:17:32.631Z,81.00
2019-04-27T09:20:05.426Z,84.20
2019-04-27T09:22:33.785Z,83.80
2019-04-27T09:25:02.160Z,86.40
2019-04-27T09:27:30.510Z,89.60
2019-04-27T09:29:59.143Z,90.50
2019-04-27T09:32:28.920Z,93.20
2019-04-27T09:34:57.331Z,90.40
2019-04-27T09:37:27.309Z,90.60
2019-04-27T09:39:56.154Z,91.30
2019-04-27T09:42:24.540Z,91.00
2019-04-27T09:44:52.922Z,90.50
2019-04-27T09:47:21.279Z,88.60
2019-04-27T09:49:49.665Z,91.60
2019-04-27T09:52:24.320Z,89.40
2019-04-27T09:54:48.226Z,86.30
2019-04-27T09:57:16.618Z,90.10
2019-04-27T09:59:46.027Z,86.00
2019-04-27T10:02:16.318Z,84.70
2019-04-27T10:04:46.060Z,83.40
2019-04-27T10:07:16.133Z,81.50
2019-04-27T10:09:45.507Z,81.90
2019-04-27T10:12:15.886Z,81.80
2019-04-27T10:14:45.435Z,82.40
2019-04-27T10:17:14.257Z,79.70
2019-04-27T10:19:42.643Z,83.50
2019-04-27T10:22:11.024Z,81.80
2019-04-27T10:24:39.349Z,80.50
2019-04-27T10:27:08.094Z,75.10
2019-04-27T10:29:36.497Z,80.00
2019-04-27T10:32:06.221Z,78.40
2019-04-27T10:34:34.735Z,77.00
2019-04-27T10:37:03.118Z,81.70
2019-04-27T10:39:31.474Z,81.40
2019-04-27T10:41:59.864Z,76.90
2019-04-27T10:44:28.218Z,79.30
2019-04-27T10:46:56.603Z,81.00
2019-04-27T10:49:24.964Z,75.90
2019-04-27T10:51:53.346Z,78.90
2019-04-27T10:54:21.777Z,75.40
2019-04-27T10:56:50.153Z,78.00
2019-04-27T10:59:18.507Z,76.80
2019-04-27T11:01:46.891Z,78.70
2019-04-27T11:04:22.574Z,76.40
2019-04-27T11:06:52.595Z,76.40
2019-04-27T11:09:20.950Z,76.40
2019-04-27T11:11:49.326Z,80.00
2019-04-27T11:14:17.688Z,81.20
2019-04-27T11:16:46.125Z,83.30
2019-04-27T11:19:16.698Z,92.80
2019-04-27T11:21:44.451Z,95.20
2019-04-27T11:24:12.797Z,95.70
2019-04-27T11:26:41.121Z,95.70
2019-04-27T11:29:09.483Z,95.40
2019-04-27T11:31:37.863Z,95.10
2019-04-27T11:34:06.681Z,93.60
2019-04-27T11:36:36.803Z,92.90
2019-04-27T11:39:08.448Z,94.40
2019-04-27T11:41:36.801Z,92.80
2019-04-27T11:44:05.186Z,92.40
2019-04-27T11:46:33.552Z,91.80
2019-04-27T11:49:01.936Z,93.00
2019-04-27T11:51:30.296Z,91.60
2019-04-27T11:53:58.684Z,89.40
2019-04-27T11:56:27.606Z,89.00
2019-04-27T11:58:57.075Z,88.70
2019-04-27T12:01:26.993Z,87.80
2019-04-27T12:03:55.729Z,87.40
2019-04-27T12:06:25.742Z,87.60
2019-04-27T12:08:54.216Z,85.60
2019-04-27T12:11:22.729Z,84.80
2019-04-27T12:13:51.111Z,90.30
2019-04-27T12:16:19.476Z,84.40
2019-04-27T12:18:49.214Z,83.60
2019-04-27T12:21:17.659Z,80.90
2019-04-27T12:23:47.233Z,79.40
2019-04-27T12:26:20.741Z,78.00
2019-04-27T12:28:50.740Z,80.30
2019-04-27T12:31:20.735Z,76.10
2019-04-27T12:33:49.122Z,82.70
2019-04-27T12:36:17.488Z,82.20
2019-04-27T12:38:46.675Z,79.50
2019-04-27T12:41:15.174Z,78.00
2019-04-27T12:43:43.530Z,80.50
2019-04-27T12:46:11.910Z,80.30
2019-04-27T12:48:40.267Z,78.60
2019-04-27T12:51:08.651Z,79.20
2019-04-27T12:53:52.178Z,76.70
2019-04-27T12:56:19.964Z,78.40
2019-04-27T12:58:52.920Z,79.20
2019-04-27T13:01:22.948Z,77.90
2019-04-27T13:03:51.307Z,76.30
2019-04-27T13:06:19.690Z,76.60
2019-04-27T13:08:48.151Z,74.70
2019-04-27T13:11:16.540Z,71.90
2019-04-27T13:13:45.571Z,73.30
2019-04-27T13:16:13.961Z,68.10
2019-04-27T13:18:42.315Z,68.60
2019-04-27T13:21:10.699Z,71.10
2019-04-27T13:23:39.065Z,72.80
2019-04-27T13:26:07.447Z,70.10
2019-04-27T13:28:35.932Z,70.70
2019-04-27T13:31:06.613Z,72.40
2019-04-27T13:33:36.361Z,72.60
2019-04-27T13:36:07.264Z,75.20
2019-04-27T13:38:36.451Z,78.60
2019-04-27T13:41:06.290Z,84.70
2019-04-27T13:43:36.363Z,84.70
2019-04-27T13:46:08.143Z,82.60
2019-04-27T13:48:54.030Z,82.00
2019-04-27T13:51:38.889Z,80.80
2019-04-27T13:54:18.505Z,80.10
2019-04-27T13:56:37.274Z,80.80
2019-04-27T13:59:07.684Z,77.10
2019-04-27T14:01:35.658Z,82.60
2019-04-27T14:04:04.839Z,77.50
2019-04-27T14:06:34.064Z,81.90
2019-04-27T14:09:02.431Z,82.50
2019-04-27T14:11:30.811Z,81.10
2019-04-27T14:13:59.170Z,82.60
2019-04-27T14:16:29.008Z,78.00
2019-04-27T14:18:59.245Z,79.00
2019-04-27T14:21:27.407Z,80.00
2019-04-27T14:23:55.883Z,77.30
2019-04-27T14:26:24.280Z,75.40
2019-04-27T14:28:52.669Z,74.70
2019-04-27T14:31:21.026Z,73.30
2019-04-27T14:33:49.460Z,74.80
2019-04-27T14:36:18.371Z,75.90
2019-04-27T14:38:47.949Z,79.90
2019-04-27T14:41:16.790Z,87.80
2019-04-27T14:43:45.170Z,87.10
2019-04-27T14:46:16.538Z,81.50
2019-04-27T14:48:44.898Z,80.10
2019-04-27T14:51:13.327Z,82.70
2019-04-27T14:53:41.709Z,83.40
2019-04-27T14:56:10.078Z,81.90
2019-04-27T14:58:40.150Z,82.60
2019-04-27T15:01:08.592Z,81.10
2019-04-27T15:03:36.987Z,74.10
2019-04-27T15:06:05.347Z,78.40
2019-04-27T15:08:34.114Z,75.70
2019-04-27T15:11:04.200Z,75.20
2019-04-27T15:13:32.528Z,73.60
2019-04-27T15:16:02.672Z,68.70
2019-04-27T15:18:34.702Z,66.30
2019-04-27T15:21:03.759Z,67.30
2019-04-27T15:23:32.118Z,71.00
2019-04-27T15:26:00.507Z,76.80
2019-04-27T15:28:32.081Z,81.60
2019-04-27T15:31:02.090Z,81.20
2019-04-27T15:33:32.135Z,83.80
2019-04-27T15:36:20.974Z,85.40
2019-04-27T15:38:51.323Z,84.80
2019-04-27T15:41:20.507Z,79.80
2019-04-27T15:43:48.887Z,71.80
2019-04-27T15:46:18.434Z,65.50
2019-04-27T15:48:48.661Z,64.00
2019-04-27T15:51:20.857Z,55.80
2019-04-27T15:53:50.821Z,55.40
2019-04-27T15:56:18.118Z,56.40
2019-04-27T15:58:48.209Z,52.60
2019-04-27T16:01:18.031Z,49.80
2019-04-27T16:03:48.128Z,60.60
2019-04-27T16:06:16.627Z,66.90
2019-04-27T16:08:46.919Z,72.60
2019-04-27T16:11:16.508Z,73.40
2019-04-27T16:13:45.019Z,78.30
2019-04-27T16:16:13.403Z,77.70
2019-04-27T16:18:41.755Z,79.50
2019-04-27T16:21:10.898Z,76.60
2019-04-27T16:23:42.764Z,77.90
2019-04-27T16:26:11.110Z,72.70
2019-04-27T16:28:42.969Z,71.20
2019-04-27T16:31:09.530Z,73.50
2019-04-27T16:33:39.089Z,68.70
2019-04-27T16:36:09.252Z,71.60
2019-04-27T16:38:44.885Z,71.00
2019-04-27T16:41:13.265Z,69.20
2019-04-27T16:43:41.620Z,58.70
2019-04-27T16:46:10.079Z,56.30
2019-04-27T16:48:39.032Z,55.20
2019-04-27T16:51:08.723Z,55.80
2019-04-27T16:53:41.031Z,54.50
2019-04-27T16:56:14.530Z,53.90
2019-04-27T16:58:39.444Z,58.50
2019-04-27T17:01:10.720Z,62.70
2019-04-27T17:03:41.454Z,66.50
2019-04-27T17:06:09.514Z,66.30
2019-04-27T17:08:39.336Z,69.30
2019-04-27T17:11:11.519Z,70.60
2019-04-27T17:13:39.485Z,70.80
2019-04-27T17:16:24.667Z,74.70
2019-04-27T17:19:06.102Z,76.10
2019-04-27T17:21:38.729Z,76.30
2019-04-27T17:24:04.605Z,75.00
2019-04-27T17:26:35.495Z,73.60
2019-04-27T17:29:16.126Z,74.20
2019-04-27T17:31:42.084Z,74.20
2019-04-27T17:34:10.439Z,73.80
2019-04-27T17:36:40.293Z,73.40
2019-04-27T17:39:09.830Z,74.80
2019-04-27T17:41:42.082Z,75.00
2019-04-27T17:44:08.564Z,72.40
2019-04-27T17:46:38.544Z,73.30
2019-04-27T17:49:08.440Z,75.20
2019-04-27T17:51:42.917Z,75.80
2019-04-27T17:54:07.938Z,79.90
2019-04-27T17:56:48.333Z,73.90
2019-04-27T17:59:10.242Z,75.30
2019-04-27T18:01:38.771Z,77.30
2019-04-27T18:04:10.403Z,76.80
2019-04-27T18:06:38.856Z,76.90
2019-04-27T18:09:09.139Z,78.10
2019-04-27T18:11:38.492Z,77.20
2019-04-27T18:14:09.401Z,76.50
2019-04-27T18:16:38.040Z,78.30
2019-04-27T18:19:11.488Z,76.00
2019-04-27T18:21:39.771Z,77.10
2019-04-27T18:24:15.508Z,79.30
2019-04-27T18:26:56.421Z,78.20
2019-04-27T18:29:22.843Z,79.00
2019-04-27T18:31:54.568Z,80.50
2019-04-27T18:34:21.350Z,80.80
2019-04-27T18:36:49.707Z,78.00
2019-04-27T18:39:18.303Z,80.50
2019-04-27T18:41:50.542Z,80.00
2019-04-27T18:44:16.678Z,82.10
2019-04-27T18:46:45.029Z,80.80
2019-04-27T18:49:27.250Z,83.30
2019-04-27T18:52:04.298Z,81.40
2019-04-27T18:54:28.848Z,82.90
2019-04-27T18:57:04.122Z,83.50
2019-04-27T18:59:28.794Z,83.10
2019-04-27T19:01:58.031Z,84.80
2019-04-27T19:04:28.065Z,83.60
2019-04-27T19:06:58.522Z,84.90
2019-04-27T19:09:26.459Z,81.90
2019-04-27T19:11:56.678Z,82.60
2019-04-27T19:14:24.842Z,83.60
2019-04-27T19:16:53.222Z,83.60
2019-04-27T19:19:21.589Z,83.80
2019-04-27T19:21:49.968Z,84.80
2019-04-27T19:24:19.193Z,84.20
2019-04-27T19:27:01.107Z,84.40
2019-04-27T19:29:31.102Z,85.00
2019-04-27T19:32:01.118Z,83.10
2019-04-27T19:34:29.466Z,84.60
2019-04-27T19:36:59.198Z,84.70
2019-04-27T19:39:28.614Z,86.50
2019-04-27T19:42:01.404Z,86.00
2019-04-27T19:44:28.990Z,86.40
2019-04-27T19:46:57.199Z,85.00
2019-04-27T19:49:25.860Z,86.10
2019-04-27T19:51:54.234Z,86.80
2019-04-27T19:54:22.665Z,85.30
2019-04-27T19:56:51.050Z,84.40
2019-04-27T19:59:21.051Z,84.10
2019-04-27T20:01:51.092Z,84.60
2019-04-27T20:04:21.100Z,83.10
2019-04-27T20:06:49.475Z,82.90
2019-04-27T20:09:19.475Z,84.00
2019-04-27T20:11:47.866Z,84.70
2019-04-27T20:14:16.226Z,84.40
2019-04-27T20:16:44.589Z,84.30
2019-04-27T20:19:12.976Z,85.40
2019-04-27T20:21:41.351Z,83.60
2019-04-27T20:24:11.681Z,85.50
2019-04-27T20:26:39.739Z,84.60
2019-04-27T20:29:08.123Z,85.10
2019-04-27T20:31:36.480Z,84.60
2019-04-27T20:34:04.872Z,82.20
2019-04-27T20:36:33.260Z,81.00
2019-04-27T20:39:01.647Z,81.70
2019-04-27T20:41:31.810Z,81.90
2019-04-27T20:44:02.197Z,81.60
2019-04-27T20:46:31.178Z,81.70
2019-04-27T20:49:01.238Z,78.90
2019-04-27T20:51:51.031Z,79.30
2019-04-27T20:54:21.053Z,81.90
2019-04-27T20:56:51.514Z,81.90
2019-04-27T20:59:19.430Z,83.20
2019-04-27T21:01:47.795Z,80.60
2019-04-27T21:04:17.807Z,79.80
2019-04-27T21:06:47.812Z,81.50
2019-04-27T21:09:17.558Z,81.20
2019-04-27T21:11:46.892Z,79.50
2019-04-27T21:14:15.343Z,78.90
2019-04-27T21:16:43.847Z,79.60
2019-04-27T21:19:12.223Z,79.90
2019-04-27T21:21:42.708Z,79.20
2019-04-27T21:24:10.883Z,79.00
2019-04-27T21:26:39.239Z,81.00
2019-04-27T21:29:07.623Z,81.00
2019-04-27T21:31:36.056Z,80.30
2019-04-27T21:34:04.519Z,82.20
2019-04-27T21:36:32.866Z,79.60
2019-04-27T21:39:01.545Z,81.10
2019-04-27T21:41:31.198Z,81.50
2019-04-27T21:44:01.294Z,77.70
2019-04-27T21:46:31.390Z,78.70
2019-04-27T21:48:59.754Z,78.10
2019-04-27T21:51:28.134Z,79.40
2019-04-27T21:54:09.867Z,80.70
2019-04-27T21:56:38.264Z,81.50
2019-04-27T21:59:06.626Z,81.50
2019-04-27T22:01:35.167Z,80.00
2019-04-27T22:04:03.894Z,80.00
2019-04-27T22:06:32.270Z,79.70
2019-04-27T22:09:01.306Z,80.60
2019-04-27T22:11:31.766Z,79.00
2019-04-27T22:14:01.320Z,78.10
2019-04-27T22:16:31.447Z,77.90
2019-04-27T22:19:01.790Z,80.20
2019-04-27T22:21:31.571Z,79.00
2019-04-27T22:24:01.692Z,79.80
2019-04-27T22:26:31.463Z,81.70
2019-04-27T22:29:01.500Z,81.60
2019-04-27T22:31:31.329Z,79.90
2019-04-27T22:34:01.683Z,80.20
2019-04-27T22:36:29.761Z,81.10
2019-04-27T22:39:01.461Z,79.20
2019-04-27T22:41:31.587Z,79.70
2019-04-27T22:44:11.522Z,77.30
2019-04-27T22:46:41.568Z,80.20
2019-04-27T22:49:10.936Z,80.00
2019-04-27T22:51:41.158Z,81.70
2019-04-27T22:54:09.414Z,81.20
2019-04-27T22:56:38.960Z,80.20
2019-04-27T22:59:14.483Z,80.40
2019-04-27T23:02:01.326Z,80.70
2019-04-27T23:04:32.566Z,81.10
2019-04-27T23:07:02.734Z,80.80
2019-04-27T23:09:31.164Z,82.00
2019-04-27T23:11:59.543Z,81.90
2019-04-27T23:14:27.898Z,81.40
2019-04-27T23:17:13.765Z,79.70
2019-04-27T23:19:42.809Z,80.80
2019-04-27T23:22:11.187Z,79.60
2019-04-27T23:24:41.363Z,78.90
2019-04-27T23:27:11.062Z,79.70
2019-04-27T23:29:41.666Z,77.60
2019-04-27T23:32:21.437Z,80.10
2019-04-27T23:34:51.336Z,80.60
2019-04-27T23:37:19.785Z,81.00
2019-04-27T23:39:48.145Z,82.00
2019-04-27T23:42:16.506Z,80.10
2019-04-27T23:44:44.888Z,80.20
2019-04-27T23:47:13.252Z,81.10
2019-04-27T23:49:41.631Z,81.60
2019-04-27T23:52:14.589Z,81.50
2019-04-27T23:54:43.007Z,80.90
2019-04-27T23:57:11.791Z,81.80
2019-04-27T23:59:41.654Z,81.80
